In Rescue
 
Open Full Screen Window  High Contrast Mode
Wind Gusting 00 knots
05
May 13, 2021 12:23 PM EDT
Weather Information
Wind Direction
  220 °
Wind Speed
  05 kt (6 mph)
Wind Gust
  00 kt (0 mph)
Altimeter
30.40 in
Visibility
10 SM
Temperature
17° C
63° F
Dewpoint
-04° C
25° F
Humidity
24%
Sky Condition
Clear
VFR

METAR KAMN 131623Z AUTO 22005KT 10SM CLR 17/M04 A3040 RMK AO2 T01711036

FAA Disclaimer: The data displayed is for advisory purposes only and is not to be used for flight planning or operations.